Time;durP1;ratioP1;P1;durP2;ratioP2;P2;SDS_P1;SDS_P2;PMS_P1;PMS_P2;Temp;Humidity;BMP_temperature;BMP_pressure;BME280_temperature;BME280_humidity;BME280_pressure;Samples;Min_cycle;Max_cycle;Signal;HPM_P1;HPM_P2
2020/12/21 00:00:10;;;;;;;11.20;5.43;;;9.70;99.90;;;;;;5010073;28;20029;-78
2020/12/21 00:02:36;;;;;;;13.52;5.78;;;8.80;99.90;;;;;;5009274;28;20568;-79
2020/12/21 00:05:02;;;;;;;11.73;5.93;;;8.80;99.90;;;;;;5005185;28;20049;-77
2020/12/21 00:07:27;;;;;;;9.43;5.22;;;8.80;99.90;;;;;;5011841;28;20104;-79
2020/12/21 00:09:53;;;;;;;11.10;5.32;;;8.80;99.90;;;;;;4993250;28;20045;-76
2020/12/21 00:12:18;;;;;;;15.30;6.13;;;8.80;99.90;;;;;;5014148;28;20565;-78
2020/12/21 00:14:44;;;;;;;13.20;4.95;;;8.80;99.90;;;;;;5007703;28;20042;-78
2020/12/21 00:17:10;;;;;;;9.98;5.10;;;8.80;99.90;;;;;;5009871;28;20109;-77
2020/12/21 00:19:35;;;;;;;12.55;5.40;;;9.20;99.90;;;;;;5010549;28;20408;-77
2020/12/21 00:22:01;;;;;;;15.65;5.45;;;8.80;99.90;;;;;;5011374;28;20037;-78
2020/12/21 00:24:27;;;;;;;15.10;5.18;;;8.80;99.90;;;;;;5004120;28;20037;-77
2020/12/21 00:26:53;;;;;;;11.25;5.45;;;8.80;99.90;;;;;;5007157;28;20502;-77
2020/12/21 00:29:19;;;;;;;10.82;4.90;;;8.80;99.90;;;;;;5009099;28;20566;-78
2020/12/21 00:31:48;;;;;;;11.05;4.97;;;8.80;99.90;;;;;;5007334;28;20563;-77
2020/12/21 00:34:14;;;;;;;12.63;4.68;;;8.80;99.90;;;;;;5009237;28;20117;-78
2020/12/21 00:36:41;;;;;;;13.15;5.25;;;8.80;99.90;;;;;;5007847;28;20034;-78
2020/12/21 00:39:07;;;;;;;11.40;4.72;;;8.80;99.90;;;;;;5006965;28;20041;-77
2020/12/21 00:41:33;;;;;;;14.50;5.43;;;8.80;99.90;;;;;;5013121;28;20068;-77
2020/12/21 00:43:59;;;;;;;14.07;5.53;;;8.80;99.90;;;;;;5011326;28;20563;-78
2020/12/21 00:46:27;;;;;;;17.13;5.30;;;8.80;99.90;;;;;;5006814;28;20048;-77
2020/12/21 00:48:54;;;;;;;12.88;5.13;;;8.80;99.90;;;;;;5010285;28;20042;-78
2020/12/21 00:51:20;;;;;;;16.25;5.55;;;8.80;99.90;;;;;;5014276;28;20446;-78
2020/12/21 00:53:47;;;;;;;10.43;5.00;;;8.80;99.90;;;;;;4991768;28;20046;-78
2020/12/21 00:56:12;;;;;;;11.80;5.90;;;8.80;99.90;;;;;;5008181;28;20084;-78
2020/12/21 00:58:42;;;;;;;10.75;6.18;;;9.00;99.90;;;;;;5005913;28;20022;-78
2020/12/21 01:01:11;;;;;;;13.90;6.67;;;8.80;99.90;;;;;;5009678;28;20068;-76
2020/12/21 01:03:37;;;;;;;11.82;5.80;;;8.80;99.90;;;;;;5013155;28;20056;-76
2020/12/21 01:06:06;;;;;;;12.32;5.22;;;8.80;99.90;;;;;;5007568;28;20042;-76
2020/12/21 01:08:34;;;;;;;14.35;6.28;;;8.80;99.90;;;;;;5006420;28;20076;-76
2020/12/21 01:11:00;;;;;;;15.20;5.97;;;8.80;99.90;;;;;;5007301;28;20054;-76
2020/12/21 01:13:26;;;;;;;12.13;5.60;;;8.80;99.90;;;;;;5023002;28;20078;-76
2020/12/21 01:15:52;;;;;;;13.52;5.35;;;8.80;99.90;;;;;;5006402;28;20034;-77
2020/12/21 01:18:18;;;;;;;15.30;5.22;;;8.80;99.90;;;;;;4994537;28;20092;-78
2020/12/21 01:20:44;;;;;;;11.57;5.32;;;8.80;99.90;;;;;;5022350;28;20034;-76
2020/12/21 01:23:10;;;;;;;12.68;4.82;;;8.90;99.90;;;;;;5007025;28;20509;-77
2020/12/21 01:25:36;;;;;;;12.95;5.18;;;8.90;99.90;;;;;;5003068;28;20538;-77
2020/12/21 01:28:03;;;;;;;13.65;4.82;;;8.90;99.90;;;;;;5006606;28;20065;-77
2020/12/21 01:30:29;;;;;;;11.05;4.63;;;8.90;99.90;;;;;;5010934;28;20064;-76
2020/12/21 01:32:55;;;;;;;8.80;4.10;;;9.00;99.90;;;;;;5021094;28;20088;-77
2020/12/21 01:35:20;;;;;;;12.40;4.03;;;9.00;99.90;;;;;;5023489;28;20084;-78
2020/12/21 01:37:46;;;;;;;11.10;4.50;;;9.00;99.90;;;;;;5007869;28;20395;-77
2020/12/21 01:40:12;;;;;;;8.70;3.13;;;9.00;99.90;;;;;;4998283;28;20462;-76
2020/12/21 01:42:38;;;;;;;11.43;3.60;;;9.10;99.90;;;;;;5007718;28;20034;-76
2020/12/21 01:45:08;;;;;;;11.25;3.47;;;9.00;99.90;;;;;;5008801;28;20046;-75
2020/12/21 01:47:35;;;;;;;11.57;3.78;;;9.10;99.90;;;;;;5010879;28;20384;-78
2020/12/21 01:50:04;;;;;;;7.95;3.70;;;9.00;99.90;;;;;;5006428;28;20041;-77
2020/12/21 01:52:30;;;;;;;12.30;3.38;;;9.10;99.90;;;;;;5000205;28;20041;-76
2020/12/21 01:54:56;;;;;;;8.70;3.78;;;9.00;99.90;;;;;;4999987;28;20058;-76
2020/12/21 01:57:21;;;;;;;10.02;3.50;;;9.10;99.90;;;;;;5000785;28;20065;-76
2020/12/21 01:59:47;;;;;;;12.55;3.80;;;9.10;99.90;;;;;;5010299;28;20580;-76
2020/12/21 02:02:13;;;;;;;13.02;4.05;;;9.10;99.90;;;;;;5013654;28;20030;-76
2020/12/21 02:04:39;;;;;;;13.65;3.25;;;9.00;99.90;;;;;;5013181;28;20081;-76
2020/12/21 02:07:06;;;;;;;11.98;3.83;;;9.00;99.90;;;;;;5006494;28;20105;-78
2020/12/21 02:09:33;;;;;;;11.27;3.75;;;9.00;99.90;;;;;;5010061;28;20124;-76
2020/12/21 02:11:59;;;;;;;10.80;3.22;;;9.00;99.90;;;;;;4995124;28;20046;-76
2020/12/21 02:14:25;;;;;;;9.07;3.70;;;9.00;99.90;;;;;;5024424;28;20097;-75
2020/12/21 02:16:50;;;;;;;9.05;3.95;;;8.90;99.90;;;;;;4994175;28;20058;-75
2020/12/21 02:19:18;;;;;;;9.00;4.00;;;8.90;99.90;;;;;;5006678;28;20419;-78
2020/12/21 02:21:44;;;;;;;10.35;3.80;;;8.80;99.90;;;;;;5003915;28;20030;-76
2020/12/21 02:24:10;;;;;;;11.50;4.18;;;8.80;99.90;;;;;;5007498;28;20034;-76
2020/12/21 02:26:36;;;;;;;11.13;4.47;;;8.70;99.90;;;;;;5022770;28;20428;-77
2020/12/21 02:29:02;;;;;;;9.05;4.72;;;8.70;99.90;;;;;;5014026;28;20504;-76
2020/12/21 02:31:27;;;;;;;8.02;4.28;;;8.70;99.90;;;;;;5011310;28;20550;-77
2020/12/21 02:33:53;;;;;;;16.92;4.88;;;8.60;99.90;;;;;;5001822;28;20033;-77
2020/12/21 02:36:19;;;;;;;9.65;4.18;;;8.50;99.90;;;;;;5007117;28;20030;-75
2020/12/21 02:38:45;;;;;;;10.52;5.03;;;8.60;99.90;;;;;;5019500;28;20044;-77
2020/12/21 02:41:15;;;;;;;11.63;4.53;;;8.70;99.90;;;;;;5011260;28;20018;-76
2020/12/21 02:43:41;;;;;;;11.32;4.07;;;8.50;99.90;;;;;;5011390;28;20064;-77
2020/12/21 02:46:08;;;;;;;10.40;4.07;;;8.60;99.90;;;;;;5009394;28;20057;-76
2020/12/21 02:48:34;;;;;;;12.20;4.05;;;8.50;99.90;;;;;;5017118;28;20041;-77
2020/12/21 02:51:00;;;;;;;10.27;4.25;;;8.50;99.90;;;;;;5003424;28;20045;-77
2020/12/21 02:53:26;;;;;;;11.82;4.00;;;8.50;99.90;;;;;;5004303;28;20176;-77
2020/12/21 02:55:51;;;;;;;12.60;4.07;;;8.50;99.90;;;;;;5007285;28;20251;-78
2020/12/21 02:58:17;;;;;;;8.73;4.20;;;8.50;99.90;;;;;;5008409;28;20049;-76
2020/12/21 03:00:43;;;;;;;10.73;4.05;;;8.60;99.90;;;;;;5010319;28;20030;-76
2020/12/21 03:03:08;;;;;;;9.55;4.35;;;8.50;99.90;;;;;;5010579;28;20046;-75
2020/12/21 03:05:34;;;;;;;12.65;5.05;;;8.50;99.90;;;;;;5007070;28;20050;-76
2020/12/21 03:08:02;;;;;;;10.35;4.43;;;8.50;99.90;;;;;;4998203;28;20052;-76
2020/12/21 03:10:28;;;;;;;9.30;4.50;;;8.40;99.90;;;;;;5004303;28;20030;-77
2020/12/21 03:12:53;;;;;;;10.77;3.95;;;8.50;99.90;;;;;;5008495;28;20038;-77
2020/12/21 03:15:20;;;;;;;8.63;3.80;;;8.40;99.90;;;;;;5005999;28;20125;-76
2020/12/21 03:17:45;;;;;;;13.07;4.43;;;8.40;99.90;;;;;;5004647;28;20394;-76
2020/12/21 03:20:11;;;;;;;9.77;4.07;;;8.50;99.90;;;;;;5010218;28;20041;-77
2020/12/21 03:22:37;;;;;;;12.35;4.20;;;8.40;99.90;;;;;;5007816;28;20404;-76
2020/12/21 03:25:04;;;;;;;9.85;4.03;;;8.40;99.90;;;;;;5009871;28;20128;-76
2020/12/21 03:27:30;;;;;;;9.43;4.25;;;8.40;99.90;;;;;;5009759;28;20042;-76
2020/12/21 03:29:56;;;;;;;9.32;3.83;;;8.40;99.90;;;;;;5008674;28;20048;-76
2020/12/21 03:32:22;;;;;;;9.93;4.38;;;8.40;99.90;;;;;;5009616;28;20069;-76
2020/12/21 03:34:47;;;;;;;8.57;3.72;;;8.40;99.90;;;;;;5009997;28;20065;-76
2020/12/21 03:37:13;;;;;;;8.80;4.18;;;8.40;99.90;;;;;;5004435;28;20034;-76
2020/12/21 03:39:39;;;;;;;13.82;4.47;;;8.50;99.90;;;;;;4993273;28;20055;-76
2020/12/21 03:42:04;;;;;;;14.35;4.10;;;8.50;99.90;;;;;;4989052;28;20046;-77
2020/12/21 03:44:30;;;;;;;10.02;3.90;;;8.60;99.90;;;;;;5008235;28;20127;-76
2020/12/21 03:46:56;;;;;;;9.35;3.90;;;8.60;99.90;;;;;;4999141;28;20121;-76
2020/12/21 03:49:24;;;;;;;12.68;4.07;;;8.70;99.90;;;;;;5026416;28;20038;-76
2020/12/21 03:51:50;;;;;;;9.65;4.28;;;8.60;99.90;;;;;;5000501;28;20081;-76
2020/12/21 03:54:15;;;;;;;9.70;4.05;;;8.50;99.90;;;;;;5009045;28;22277;-76
2020/12/21 03:56:43;;;;;;;10.35;4.00;;;8.50;99.90;;;;;;4990313;28;20081;-75
2020/12/21 03:59:09;;;;;;;11.05;3.90;;;8.50;99.90;;;;;;4998819;28;20032;-76
2020/12/21 04:01:36;;;;;;;8.25;3.90;;;8.40;99.90;;;;;;5001073;28;20040;-76
2020/12/21 04:04:02;;;;;;;8.15;3.60;;;8.40;99.90;;;;;;5002129;28;20034;-75
2020/12/21 04:06:27;;;;;;;13.77;4.97;;;8.50;99.90;;;;;;5003871;28;20044;-77
2020/12/21 04:08:53;;;;;;;11.52;4.03;;;8.50;99.90;;;;;;5005215;28;20042;-77
2020/12/21 04:11:19;;;;;;;9.98;4.20;;;8.50;99.90;;;;;;5007764;28;20526;-76
2020/12/21 04:13:45;;;;;;;10.52;4.80;;;8.50;99.90;;;;;;5012008;28;20046;-76
2020/12/21 04:16:10;;;;;;;7.75;3.92;;;8.50;99.90;;;;;;5009068;28;20033;-76
2020/12/21 04:18:36;;;;;;;12.18;4.35;;;8.40;99.90;;;;;;5005175;28;20038;-75
2020/12/21 04:21:01;;;;;;;12.20;4.13;;;8.40;99.90;;;;;;5025035;28;20038;-76
2020/12/21 04:23:27;;;;;;;11.82;4.57;;;8.50;99.90;;;;;;5007154;28;20092;-76
2020/12/21 04:25:53;;;;;;;10.88;4.75;;;8.50;99.90;;;;;;5008109;28;20057;-76
2020/12/21 04:28:18;;;;;;;13.73;4.80;;;8.50;99.90;;;;;;5008797;28;20049;-76
2020/12/21 04:30:44;;;;;;;8.52;4.35;;;8.60;99.90;;;;;;5009146;28;20395;-76
2020/12/21 04:33:10;;;;;;;11.00;4.50;;;8.60;99.90;;;;;;5009605;28;20017;-76
2020/12/21 04:35:35;;;;;;;12.57;4.15;;;8.60;99.90;;;;;;5011201;28;20038;-76
2020/12/21 04:38:01;;;;;;;9.02;3.83;;;8.50;99.90;;;;;;5008973;28;20037;-77
2020/12/21 04:40:27;;;;;;;12.30;4.32;;;8.60;99.90;;;;;;5005234;28;20503;-76
2020/12/21 04:42:53;;;;;;;10.80;4.10;;;8.50;99.90;;;;;;4999898;28;20042;-76
2020/12/21 04:45:20;;;;;;;10.35;4.00;;;8.60;99.90;;;;;;5007812;28;20050;-76
2020/12/21 04:47:46;;;;;;;12.18;4.15;;;8.50;99.90;;;;;;5005461;28;20030;-76
2020/12/21 04:50:17;;;;;;;8.73;3.88;;;8.60;99.90;;;;;;5002600;28;20038;-75
2020/12/21 04:52:50;;;;;;;11.18;4.28;;;8.60;99.90;;;;;;5000129;28;20027;-77
2020/12/21 04:55:17;;;;;;;11.27;4.60;;;8.60;99.90;;;;;;5017957;28;20030;-77
2020/12/21 04:58:00;;;;;;;10.85;4.38;;;8.60;99.90;;;;;;5005522;28;20515;-76
2020/12/21 05:00:27;;;;;;;12.13;4.43;;;8.70;99.90;;;;;;5005921;28;20128;-76
2020/12/21 05:02:53;;;;;;;10.68;4.55;;;8.70;99.90;;;;;;5009553;28;20038;-77
2020/12/21 05:05:36;;;;;;;11.18;4.60;;;8.60;99.90;;;;;;5006702;28;20104;-78
2020/12/21 05:08:15;;;;;;;9.80;4.75;;;8.60;99.90;;;;;;5002039;28;20045;-76
2020/12/21 05:10:55;;;;;;;10.15;4.38;;;8.60;99.90;;;;;;5024094;28;20060;-76
2020/12/21 05:13:21;;;;;;;12.68;5.03;;;8.50;99.90;;;;;;5011204;28;20046;-77
2020/12/21 05:15:54;;;;;;;17.65;5.32;;;8.50;99.90;;;;;;5012403;28;20096;-76
2020/12/21 05:18:24;;;;;;;14.95;4.75;;;8.50;99.90;;;;;;5005923;28;20036;-76
2020/12/21 05:21:07;;;;;;;13.38;5.68;;;8.50;99.90;;;;;;5009740;28;20391;-77
2020/12/21 05:23:33;;;;;;;11.35;4.72;;;8.50;99.90;;;;;;5013287;28;20040;-79
2020/12/21 05:26:02;;;;;;;11.82;5.35;;;8.50;99.90;;;;;;5009139;28;20048;-76
2020/12/21 05:28:30;;;;;;;15.15;4.80;;;8.50;99.90;;;;;;5012383;28;20431;-76
2020/12/21 05:30:58;;;;;;;12.85;5.30;;;8.60;99.90;;;;;;5013480;28;20030;-78
2020/12/21 05:33:24;;;;;;;12.43;5.18;;;8.60;99.90;;;;;;5011715;28;20533;-78
2020/12/21 05:35:50;;;;;;;13.68;5.03;;;8.60;99.90;;;;;;5012270;28;20069;-77
2020/12/21 05:38:24;;;;;;;14.18;5.90;;;8.60;99.90;;;;;;5004423;28;20065;-77
2020/12/21 05:40:50;;;;;;;11.55;5.43;;;8.60;99.90;;;;;;5013293;28;20570;-77
2020/12/21 05:43:29;;;;;;;8.20;4.45;;;8.60;99.90;;;;;;5010008;28;20139;-77
2020/12/21 05:46:23;;;;;;;12.93;5.18;;;8.70;99.90;;;;;;5007794;28;20052;-77
2020/12/21 05:48:50;;;;;;;13.77;5.15;;;8.70;99.90;;;;;;5008000;28;20044;-76
2020/12/21 05:51:33;;;;;;;11.13;4.88;;;8.70;99.90;;;;;;5024601;28;20072;-76
2020/12/21 05:54:02;;;;;;;13.38;5.53;;;8.70;99.90;;;;;;5008935;28;20045;-76
2020/12/21 05:56:30;;;;;;;10.23;5.18;;;8.60;99.90;;;;;;5008143;28;20092;-76
2020/12/21 05:58:56;;;;;;;12.27;5.80;;;8.60;99.90;;;;;;5009753;28;20064;-76
2020/12/21 06:01:23;;;;;;;11.10;5.00;;;8.60;99.90;;;;;;5003533;28;20039;-80
2020/12/21 06:03:50;;;;;;;12.05;5.38;;;8.70;99.90;;;;;;4986046;28;20491;-78
2020/12/21 06:06:24;;;;;;;12.80;5.57;;;8.70;99.90;;;;;;5001055;28;20042;-78
2020/12/21 06:08:53;;;;;;;12.38;5.20;;;8.70;99.90;;;;;;5012699;28;20096;-78
2020/12/21 06:11:30;;;;;;;11.07;5.07;;;8.70;99.90;;;;;;5012187;28;20081;-77
2020/12/21 06:14:06;;;;;;;11.02;5.30;;;8.70;99.90;;;;;;5010783;28;20052;-78
2020/12/21 06:16:35;;;;;;;11.98;5.90;;;8.70;99.90;;;;;;5026336;28;20084;-78
2020/12/21 06:19:01;;;;;;;13.20;6.40;;;8.70;99.90;;;;;;4999243;28;20054;-76
2020/12/21 06:21:35;;;;;;;13.60;5.65;;;8.70;99.90;;;;;;4993571;28;20042;-76
2020/12/21 06:24:01;;;;;;;14.35;5.75;;;8.60;99.90;;;;;;5018279;28;20054;-76
2020/12/21 06:26:34;;;;;;;12.10;5.75;;;8.60;99.90;;;;;;5010114;28;20395;-76
2020/12/21 06:29:02;;;;;;;13.90;5.30;;;8.60;99.90;;;;;;5009947;28;20116;-76
2020/12/21 06:31:39;;;;;;;13.57;6.15;;;8.60;99.90;;;;;;5004185;28;20041;-78
2020/12/21 06:34:05;;;;;;;13.93;6.43;;;8.60;99.90;;;;;;5008183;28;20056;-76
2020/12/21 06:36:32;;;;;;;12.95;5.75;;;8.60;99.90;;;;;;5011920;28;20038;-76
2020/12/21 06:38:57;;;;;;;12.65;6.05;;;8.70;99.90;;;;;;5027495;28;20506;-78
2020/12/21 06:41:25;;;;;;;13.57;5.40;;;8.70;99.90;;;;;;5004283;28;20050;-76
2020/12/21 06:44:07;;;;;;;13.52;5.82;;;8.70;99.90;;;;;;5000278;28;20396;-77
2020/12/21 06:46:36;;;;;;;13.68;5.85;;;8.70;99.90;;;;;;5003576;28;20584;-77
2020/12/21 06:49:13;;;;;;;12.63;5.43;;;8.70;99.90;;;;;;5010482;28;20056;-76
2020/12/21 06:51:50;;;;;;;14.13;5.95;;;8.70;99.90;;;;;;5005168;28;20049;-76
2020/12/21 06:54:17;;;;;;;11.15;5.00;;;8.70;99.90;;;;;;5006970;28;20455;-76
2020/12/21 06:56:45;;;;;;;13.35;7.68;;;8.70;99.90;;;;;;5002716;28;20022;-76
2020/12/21 06:59:16;;;;;;;9.75;4.57;;;8.70;99.90;;;;;;5001988;28;20034;-75
2020/12/21 07:01:44;;;;;;;10.65;5.25;;;8.70;99.90;;;;;;5006177;28;20124;-76
2020/12/21 07:04:20;;;;;;;16.85;5.75;;;8.60;99.90;;;;;;5016577;28;20022;-77
2020/12/21 07:06:46;;;;;;;12.45;5.75;;;8.60;99.90;;;;;;5009194;28;20121;-76
2020/12/21 07:09:31;;;;;;;13.50;5.50;;;8.50;99.90;;;;;;5006061;28;20045;-77
2020/12/21 07:12:07;;;;;;;9.75;5.40;;;8.70;99.90;;;;;;5019550;28;20160;-76
2020/12/21 07:14:40;;;;;;;12.73;5.35;;;8.60;99.90;;;;;;5001600;28;20038;-77
2020/12/21 07:17:15;;;;;;;11.68;5.55;;;8.70;99.90;;;;;;5002093;28;20041;-76
2020/12/21 07:19:42;;;;;;;14.77;5.15;;;8.70;99.90;;;;;;5016576;28;20022;-78
2020/12/21 07:22:12;;;;;;;11.27;4.82;;;8.70;99.90;;;;;;5013211;28;20036;-77
2020/12/21 07:24:40;;;;;;;10.20;4.93;;;8.70;99.90;;;;;;5005455;28;20041;-78
2020/12/21 07:27:06;;;;;;;13.48;4.93;;;8.70;99.90;;;;;;5002659;28;20044;-77
2020/12/21 07:29:37;;;;;;;8.43;4.35;;;8.70;99.90;;;;;;5002724;28;20211;-77
2020/12/21 07:32:06;;;;;;;9.60;4.93;;;8.70;99.90;;;;;;5008713;28;20092;-77
2020/12/21 07:34:32;;;;;;;14.45;5.60;;;8.70;99.90;;;;;;5009100;28;20037;-76
2020/12/21 07:36:58;;;;;;;11.98;5.45;;;8.70;99.90;;;;;;5004382;28;20070;-76
2020/12/21 07:39:24;;;;;;;13.93;5.47;;;8.70;99.90;;;;;;5002675;28;20045;-78
2020/12/21 07:41:53;;;;;;;14.57;5.20;;;8.90;99.90;;;;;;5018759;28;20041;-76
2020/12/21 07:44:29;;;;;;;13.10;5.40;;;8.70;99.90;;;;;;5007075;28;20534;-76
2020/12/21 07:46:58;;;;;;;9.75;4.88;;;8.70;99.90;;;;;;5007392;28;20045;-77
2020/12/21 07:49:24;;;;;;;11.77;5.15;;;8.70;99.90;;;;;;5009867;28;20038;-79
2020/12/21 07:51:56;;;;;;;8.50;4.38;;;8.70;99.90;;;;;;5005107;28;20104;-78
2020/12/21 07:54:22;;;;;;;11.68;5.05;;;8.70;99.90;;;;;;5005941;28;20037;-75
2020/12/21 07:57:01;;;;;;;12.80;5.25;;;8.70;99.90;;;;;;4999512;28;20418;-78
2020/12/21 07:59:26;;;;;;;10.75;5.22;;;8.70;99.90;;;;;;5000663;28;20041;-76
2020/12/21 08:01:58;;;;;;;13.85;5.85;;;8.70;99.90;;;;;;4989057;28;20038;-78
2020/12/21 08:04:24;;;;;;;14.40;5.55;;;8.60;99.90;;;;;;5006818;28;20084;-76
2020/12/21 08:06:49;;;;;;;10.98;4.97;;;8.60;99.90;;;;;;5003926;28;20037;-77
2020/12/21 08:09:16;;;;;;;12.75;5.22;;;8.60;99.90;;;;;;4984989;28;20038;-79
2020/12/21 08:11:42;;;;;;;11.25;5.10;;;8.60;99.90;;;;;;5007525;28;20030;-77
2020/12/21 08:14:09;;;;;;;9.13;5.10;;;8.60;99.90;;;;;;5009848;28;20037;-77
2020/12/21 08:16:35;;;;;;;13.52;5.60;;;8.60;99.90;;;;;;5004274;28;20030;-78
2020/12/21 08:19:01;;;;;;;11.75;6.07;;;8.70;99.90;;;;;;5000876;28;20040;-77
2020/12/21 08:21:30;;;;;;;12.98;5.75;;;8.70;99.90;;;;;;5008481;28;20069;-78
2020/12/21 08:23:57;;;;;;;10.15;4.90;;;8.80;99.90;;;;;;5005909;28;20125;-78
2020/12/21 08:26:25;;;;;;;11.00;5.13;;;8.70;99.90;;;;;;5006439;28;20038;-77
2020/12/21 08:28:52;;;;;;;13.43;4.97;;;8.60;99.90;;;;;;5014016;28;20030;-77
2020/12/21 08:31:19;;;;;;;10.73;4.72;;;8.60;99.90;;;;;;5008105;28;20107;-77
2020/12/21 08:34:06;;;;;;;9.57;5.25;;;8.50;99.90;;;;;;5006446;28;20038;-78
2020/12/21 08:36:39;;;;;;;8.50;4.95;;;8.60;99.90;;;;;;5006746;28;20038;-78
2020/12/21 08:39:09;;;;;;;9.68;5.10;;;8.60;99.90;;;;;;5011527;28;20030;-79
2020/12/21 08:41:43;;;;;;;10.68;5.10;;;8.60;99.90;;;;;;5003167;28;20129;-78
2020/12/21 08:44:19;;;;;;;11.48;5.32;;;8.60;99.90;;;;;;5008666;28;20156;-77
2020/12/21 08:46:51;;;;;;;12.10;5.38;;;8.60;99.90;;;;;;4998812;28;20034;-76
2020/12/21 08:49:18;;;;;;;7.95;5.07;;;8.60;99.90;;;;;;4999084;28;20037;-78
2020/12/21 08:51:44;;;;;;;14.32;5.50;;;8.70;99.90;;;;;;4996495;28;20073;-78
2020/12/21 08:54:09;;;;;;;13.93;6.05;;;8.70;99.90;;;;;;5000694;28;20069;-77
2020/12/21 08:56:35;;;;;;;9.30;5.13;;;8.70;99.90;;;;;;5001455;28;20111;-77
2020/12/21 08:59:01;;;;;;;10.07;5.40;;;8.70;99.90;;;;;;4989090;28;20424;-79
2020/12/21 09:01:27;;;;;;;18.23;6.93;;;8.70;99.90;;;;;;4993430;28;20050;-77
2020/12/21 09:03:52;;;;;;;10.32;5.40;;;8.70;99.90;;;;;;5007824;28;20030;-79
2020/12/21 09:06:23;;;;;;;10.93;5.03;;;8.80;99.90;;;;;;5005786;28;20116;-78
2020/12/21 09:08:50;;;;;;;20.52;6.78;;;8.80;99.90;;;;;;5008331;28;20046;-77
2020/12/21 09:11:20;;;;;;;11.98;5.65;;;8.80;99.90;;;;;;5008997;28;20034;-80
2020/12/21 09:13:46;;;;;;;10.98;4.78;;;8.80;99.90;;;;;;5005211;28;20061;-76
2020/12/21 09:16:16;;;;;;;10.35;5.07;;;8.80;99.90;;;;;;5008024;28;20080;-76
2020/12/21 09:18:42;;;;;;;11.20;4.88;;;8.90;99.90;;;;;;5003852;28;20093;-77
2020/12/21 09:21:08;;;;;;;7.63;4.32;;;8.90;99.90;;;;;;4990409;28;20030;-77
2020/12/21 09:23:33;;;;;;;10.40;4.93;;;8.90;99.90;;;;;;5006549;28;20042;-77
2020/12/21 09:25:59;;;;;;;9.02;4.68;;;8.90;99.90;;;;;;5018430;28;20399;-77
2020/12/21 09:28:25;;;;;;;10.32;4.40;;;9.00;99.90;;;;;;5003142;28;20024;-78
2020/12/21 09:30:51;;;;;;;10.32;4.70;;;9.10;99.90;;;;;;5003089;28;20202;-77
2020/12/21 09:33:16;;;;;;;11.27;4.45;;;9.20;99.90;;;;;;4983335;28;20049;-78
2020/12/21 09:35:42;;;;;;;11.48;4.93;;;9.30;99.90;;;;;;4997775;28;20034;-77
2020/12/21 09:38:08;;;;;;;9.25;4.00;;;9.30;99.90;;;;;;5001320;28;20129;-78
2020/12/21 09:40:34;;;;;;;8.55;4.40;;;9.30;99.90;;;;;;4993223;28;20014;-77
2020/12/21 09:43:00;;;;;;;9.93;4.35;;;9.30;99.90;;;;;;5015718;28;20038;-76
2020/12/21 09:45:25;;;;;;;10.05;4.50;;;9.30;99.90;;;;;;5010984;28;20041;-76
2020/12/21 09:47:51;;;;;;;9.73;4.20;;;9.20;99.90;;;;;;5001897;28;20038;-76
2020/12/21 09:50:16;;;;;;;10.48;4.35;;;9.40;99.90;;;;;;4993408;28;20131;-76
2020/12/21 09:52:42;;;;;;;8.07;3.97;;;9.30;99.90;;;;;;5023926;28;20072;-76
2020/12/21 09:55:11;;;;;;;8.40;4.85;;;9.30;99.90;;;;;;5002056;28;20543;-78
2020/12/21 09:57:37;;;;;;;9.32;4.63;;;9.30;99.90;;;;;;5003352;28;20514;-78
2020/12/21 10:00:04;;;;;;;9.77;4.95;;;9.20;99.90;;;;;;5002655;28;20049;-80
2020/12/21 10:02:29;;;;;;;10.50;5.10;;;9.20;99.90;;;;;;5006610;28;20042;-77
2020/12/21 10:04:55;;;;;;;10.60;4.70;;;9.10;99.90;;;;;;5006360;28;20041;-75
2020/12/21 10:07:20;;;;;;;10.18;4.70;;;9.10;99.90;;;;;;5006841;28;20042;-76
2020/12/21 10:09:48;;;;;;;11.38;4.57;;;9.20;99.90;;;;;;4980983;28;20050;-76
2020/12/21 10:12:14;;;;;;;19.33;8.38;;;;;;;;;;4991779;28;20053;-76
2020/12/21 10:14:43;;;;;;;7.93;5.10;;;9.30;99.90;;;;;;5007285;28;20042;-77
2020/12/21 10:17:08;;;;;;;9.55;4.90;;;9.40;99.90;;;;;;5007938;28;20030;-77
2020/12/21 10:19:37;;;;;;;7.90;5.00;;;9.40;99.90;;;;;;5004016;28;20041;-77
2020/12/21 10:22:03;;;;;;;9.40;5.00;;;9.50;99.90;;;;;;5008992;28;20117;-76
2020/12/21 10:24:29;;;;;;;10.82;5.13;;;9.50;99.90;;;;;;5004737;28;20478;-76
2020/12/21 10:26:54;;;;;;;10.57;4.90;;;9.50;99.90;;;;;;5003119;28;20053;-77
2020/12/21 10:29:20;;;;;;;11.38;4.60;;;9.60;99.90;;;;;;5004536;28;20037;-77
2020/12/21 10:31:45;;;;;;;8.95;4.68;;;9.70;99.90;;;;;;4991879;28;20034;-77
2020/12/21 10:34:11;;;;;;;7.72;4.75;;;9.60;99.90;;;;;;5005943;28;20122;-78
2020/12/21 10:36:37;;;;;;;8.73;4.93;;;9.70;99.90;;;;;;5008849;28;20038;-79
2020/12/21 10:39:03;;;;;;;8.63;4.70;;;9.70;99.90;;;;;;5008818;28;20037;-76
2020/12/21 10:41:33;;;;;;;10.90;4.40;;;9.70;99.90;;;;;;5006907;28;20039;-78
2020/12/21 10:43:58;;;;;;;9.07;4.43;;;9.70;99.90;;;;;;4997213;28;20034;-76
2020/12/21 10:46:25;;;;;;;9.40;4.18;;;9.70;99.90;;;;;;4986222;28;20038;-77
2020/12/21 10:48:50;;;;;;;8.98;4.90;;;9.80;99.90;;;;;;5007403;28;20564;-77
2020/12/21 10:51:28;;;;;;;9.73;4.40;;;9.90;99.90;;;;;;5004396;28;20045;-75
2020/12/21 10:53:54;;;;;;;6.93;4.30;;;10.00;99.90;;;;;;4998519;28;20056;-79
2020/12/21 10:56:21;;;;;;;7.55;4.70;;;9.90;99.90;;;;;;5003418;28;20038;-78
2020/12/21 10:58:47;;;;;;;10.13;4.70;;;9.80;99.90;;;;;;4999517;28;20042;-77
2020/12/21 11:01:15;;;;;;;9.32;4.38;;;9.80;99.90;;;;;;4984174;28;20045;-76
2020/12/21 11:03:41;;;;;;;10.07;4.82;;;9.80;99.90;;;;;;4999013;28;20042;-76
2020/12/21 11:06:06;;;;;;;7.97;5.00;;;9.80;99.90;;;;;;5000139;28;20045;-76
2020/12/21 11:08:32;;;;;;;8.85;5.20;;;9.70;99.90;;;;;;4998551;28;20030;-76
2020/12/21 11:10:58;;;;;;;11.63;5.47;;;9.70;99.90;;;;;;5002983;28;20030;-77
2020/12/21 11:13:23;;;;;;;9.20;5.32;;;9.70;99.90;;;;;;4995138;28;20064;-76
2020/12/21 11:15:49;;;;;;;12.23;5.20;;;9.60;99.90;;;;;;5006544;28;20065;-77
2020/12/21 11:18:15;;;;;;;9.77;4.60;;;10.00;99.90;;;;;;5006229;28;20034;-78
2020/12/21 11:20:40;;;;;;;11.95;5.18;;;9.60;99.90;;;;;;4992430;28;20062;-76
2020/12/21 11:23:07;;;;;;;13.88;5.85;;;9.60;99.90;;;;;;4996249;28;20042;-77
2020/12/21 11:25:32;;;;;;;9.18;5.00;;;9.50;99.90;;;;;;4995491;28;20034;-76
2020/12/21 11:28:01;;;;;;;12.40;6.07;;;9.60;99.90;;;;;;4999121;28;21139;-77
2020/12/21 11:30:27;;;;;;;12.35;4.88;;;9.60;99.90;;;;;;5000451;28;20034;-76
2020/12/21 11:32:53;;;;;;;9.57;4.80;;;9.60;99.90;;;;;;4986493;28;20467;-78
2020/12/21 11:35:19;;;;;;;8.25;4.22;;;9.70;99.90;;;;;;5009795;28;20676;-77
2020/12/21 11:37:47;;;;;;;10.15;4.45;;;9.70;99.90;;;;;;5005068;28;20296;-77
2020/12/21 11:40:13;;;;;;;5.93;3.35;;;10.20;99.90;;;;;;5016003;28;20081;-77
2020/12/21 11:42:38;;;;;;;8.57;3.90;;;9.70;99.90;;;;;;4996218;28;20176;-78
2020/12/21 11:45:06;;;;;;;7.47;3.85;;;9.80;99.90;;;;;;4999045;28;20060;-78
2020/12/21 11:47:31;;;;;;;12.93;3.50;;;9.90;99.90;;;;;;5004928;28;20029;-75
2020/12/21 11:49:57;;;;;;;8.15;3.97;;;9.90;99.90;;;;;;5009621;28;20040;-77
2020/12/21 11:52:23;;;;;;;7.32;3.65;;;9.90;99.90;;;;;;5004465;28;20343;-77
2020/12/21 11:54:49;;;;;;;7.63;3.25;;;10.00;99.90;;;;;;5008146;28;20415;-78
2020/12/21 11:57:15;;;;;;;10.15;3.42;;;;;;;;;;4984966;28;20046;-77
2020/12/21 11:59:40;;;;;;;8.80;3.30;;;9.90;99.90;;;;;;5009110;28;20038;-76
2020/12/21 12:02:09;;;;;;;8.63;3.17;;;10.00;99.90;;;;;;4994312;28;20170;-76
2020/12/21 12:04:35;;;;;;;9.15;2.90;;;10.00;99.90;;;;;;5009301;28;20037;-78
2020/12/21 12:07:01;;;;;;;6.97;2.80;;;10.00;99.90;;;;;;5003879;28;20468;-77
2020/12/21 12:09:28;;;;;;;5.30;2.85;;;10.00;99.90;;;;;;5003717;28;20033;-76
2020/12/21 12:11:54;;;;;;;9.15;3.03;;;10.00;99.90;;;;;;5001666;28;20041;-76
2020/12/21 12:14:20;;;;;;;5.93;2.63;;;10.10;99.90;;;;;;5003543;28;20154;-75
2020/12/21 12:16:46;;;;;;;6.72;2.80;;;10.10;99.90;;;;;;5006806;28;20125;-78
2020/12/21 12:19:12;;;;;;;7.03;2.45;;;10.10;99.90;;;;;;5004007;28;20034;-75
2020/12/21 12:21:38;;;;;;;6.72;2.72;;;10.00;99.90;;;;;;5002378;28;20044;-75
2020/12/21 12:24:04;;;;;;;6.45;2.35;;;10.20;99.90;;;;;;5000800;28;20044;-76
2020/12/21 12:26:30;;;;;;;7.68;2.25;;;10.20;99.90;;;;;;4989658;28;20038;-75
2020/12/21 12:28:56;;;;;;;4.78;2.40;;;10.20;99.90;;;;;;4989063;28;20052;-77
2020/12/21 12:31:22;;;;;;;4.88;2.20;;;10.20;99.90;;;;;;5005073;28;20128;-76
2020/12/21 12:33:49;;;;;;;6.85;2.55;;;10.30;99.90;;;;;;5006716;28;20030;-77
2020/12/21 12:36:19;;;;;;;6.70;2.72;;;10.30;99.70;;;;;;5004825;28;20034;-76
2020/12/21 12:38:46;;;;;;;6.05;2.20;;;10.30;99.70;;;;;;5005533;28;20422;-76
2020/12/21 12:41:11;;;;;;;5.53;2.28;;;10.40;99.80;;;;;;5000390;28;20022;-76
2020/12/21 12:43:40;;;;;;;5.68;2.10;;;10.30;99.30;;;;;;5002076;28;20128;-77
2020/12/21 12:46:09;;;;;;;4.82;1.92;;;10.40;99.00;;;;;;4996038;28;20088;-77
2020/12/21 12:48:36;;;;;;;6.80;2.47;;;10.50;98.90;;;;;;5001919;28;21036;-78
2020/12/21 12:51:02;;;;;;;7.18;2.45;;;10.50;99.00;;;;;;5005202;28;20037;-76